Time;durP1;ratioP1;P1;durP2;ratioP2;P2;SDS_P1;SDS_P2;PMS_P1;PMS_P2;Temp;Humidity;BMP_temperature;BMP_pressure;BME280_temperature;BME280_humidity;BME280_pressure;Samples;Min_cycle;Max_cycle;Signal;HPM_P1;HPM_P2
2022/11/01 00:00:18;;;;;;;52.53;19.05;;;;;;;14.21;89.65;99375.13;4209014;83;28582;-87
2022/11/01 00:06:21;;;;;;;63.75;27.48;;;;;;;14.24;90.75;99370.56;4206977;83;28452;-86
2022/11/01 00:12:25;;;;;;;62.17;28.57;;;;;;;14.39;100.00;99366.47;4218964;83;28502;-85
2022/11/01 00:18:27;;;;;;;67.82;28.12;;;;;;;14.01;100.00;99362.13;4209346;83;28492;-86
2022/11/01 00:24:32;;;;;;;60.00;27.65;;;;;;;13.93;100.00;99362.80;4205951;84;28482;-80
2022/11/01 00:30:36;;;;;;;55.43;26.00;;;;;;;14.00;100.00;99365.34;4218244;84;28485;-85
2022/11/01 00:36:37;;;;;;;52.65;26.27;;;;;;;14.02;100.00;99354.30;4218185;84;28501;-84
2022/11/01 00:42:39;;;;;;;42.13;23.87;;;;;;;14.11;100.00;99346.58;4218433;84;28905;-85
2022/11/01 00:48:40;;;;;;;42.08;24.05;;;;;;;13.96;100.00;99339.88;4202202;84;28455;-85
2022/11/01 00:54:41;;;;;;;42.25;22.93;;;;;;;14.22;100.00;99351.91;4202165;83;28448;-85
2022/11/01 01:00:43;;;;;;;47.23;23.98;;;;;;;14.48;100.00;99359.58;4217546;84;28503;-85
2022/11/01 01:06:44;;;;;;;48.80;24.18;;;;;;;14.64;100.00;99341.11;4202148;84;28482;-86
2022/11/01 01:12:45;;;;;;;43.33;24.15;;;;;;;14.70;100.00;99331.72;4199160;83;28448;-88
2022/11/01 01:18:47;;;;;;;41.28;23.85;;;;;;;14.82;100.00;99335.14;4199519;84;28553;-87
2022/11/01 01:24:48;;;;;;;49.38;22.17;;;;;;;15.06;100.00;99329.45;4217516;84;28444;-86
2022/11/01 01:30:50;;;;;;;53.60;23.52;;;;;;;15.00;100.00;99324.52;4178970;84;28582;-86
2022/11/01 01:36:51;;;;;;;52.40;22.17;;;;;;;15.04;100.00;99312.09;4172847;84;28482;-84
2022/11/01 01:42:52;;;;;;;51.95;22.73;;;;;;;14.57;100.00;99302.59;4199529;84;28476;-84
2022/11/01 01:48:58;;;;;;;47.58;22.95;;;;;;;14.63;100.00;99296.18;4217879;84;28420;-84
2022/11/01 01:55:04;;;;;;;49.20;23.30;;;;;;;15.11;100.00;99298.91;4199860;84;28491;-86
2022/11/01 02:01:05;;;;;;;61.80;23.80;;;;;;;14.87;100.00;99299.20;4217479;84;28581;-84
2022/11/01 02:07:08;;;;;;;49.98;21.95;;;;;;;15.17;100.00;99298.70;4218153;84;28444;-85
2022/11/01 02:13:12;;;;;;;47.75;21.10;;;;;;;15.13;100.00;99287.28;4198523;84;28505;-84
2022/11/01 02:20:04;;;;;;;54.00;21.35;;;;;;;15.11;100.00;99285.37;4188469;84;28456;-86
2022/11/01 02:26:38;;;;;;;54.77;22.82;;;;;;;15.19;100.00;99288.98;4201417;84;28538;-84
2022/11/01 02:32:54;;;;;;;53.45;23.22;;;;;;;15.29;100.00;99293.66;4169754;85;28474;-85
2022/11/01 02:39:03;;;;;;;44.23;20.45;;;;;;;15.30;100.00;99292.06;4161112;85;28472;-85
2022/11/01 02:45:10;;;;;;;44.58;19.95;;;;;;;15.38;100.00;99292.13;4176378;85;28504;-85
2022/11/01 02:51:12;;;;;;;45.75;22.87;;;;;;;15.12;100.00;99296.48;4158221;84;28434;-85
2022/11/01 02:57:34;;;;;;;47.48;21.75;;;;;;;15.14;100.00;99278.08;4175800;84;28498;-84
2022/11/01 03:03:35;;;;;;;48.58;22.98;;;;;;;15.02;100.00;99292.59;4168727;84;28438;-85
2022/11/01 03:09:39;;;;;;;50.48;23.50;;;;;;;15.13;100.00;99285.92;4165451;85;28460;-85
2022/11/01 03:15:46;;;;;;;48.83;22.95;;;;;;;15.12;100.00;99286.48;4170086;84;28497;-84
2022/11/01 03:22:08;;;;;;;45.10;22.10;;;;;;;15.02;100.00;99276.34;4223719;83;28471;-87
2022/11/01 03:28:29;;;;;;;43.95;22.02;;;;;;;15.14;100.00;99276.73;4236918;83;28464;-86
2022/11/01 03:34:34;;;;;;;41.08;21.57;;;;;;;14.88;100.00;99279.18;4237619;83;28541;-86
2022/11/01 03:40:39;;;;;;;47.20;22.40;;;;;;;14.86;100.00;99277.27;4237667;83;28462;-86
2022/11/01 03:46:41;;;;;;;42.62;22.40;;;;;;;14.88;100.00;99279.18;4236697;84;28498;-84
2022/11/01 03:52:43;;;;;;;35.75;21.00;;;;;;;14.75;100.00;99288.50;4236507;83;28578;-84
2022/11/01 03:58:45;;;;;;;36.85;21.57;;;;;;;14.68;100.00;99287.31;4233987;82;28484;-83
2022/11/01 04:04:46;;;;;;;38.65;22.50;;;;;;;14.79;100.00;99289.64;4218430;83;28494;-86
2022/11/01 04:10:47;;;;;;;40.50;22.15;;;;;;;14.73;100.00;99286.59;4202339;84;28464;-86
2022/11/01 04:23:08;;;;;;;45.55;23.02;;;;;;;14.52;100.00;99278.70;4183496;84;28460;-86
2022/11/01 04:29:12;;;;;;;48.28;23.95;;;;;;;14.73;98.97;99273.86;4176610;83;28474;-86
2022/11/01 04:35:14;;;;;;;48.92;23.20;;;;;;;14.66;99.45;99270.52;4209868;83;28479;-86
2022/11/01 04:41:21;;;;;;;51.63;22.77;;;;;;;14.54;100.00;99254.95;4209227;83;28500;-86
2022/11/01 04:47:22;;;;;;;52.83;25.20;;;;;;;14.64;100.00;99261.84;4206598;84;28488;-86
2022/11/01 04:53:26;;;;;;;51.83;26.30;;;;;;;14.64;100.00;99263.98;4191952;85;28536;-86
2022/11/01 04:59:27;;;;;;;51.80;26.82;;;;;;;14.69;100.00;99262.44;4176398;84;28467;-86
2022/11/01 05:05:28;;;;;;;54.98;25.88;;;;;;;14.68;100.00;99249.95;4195925;84;28456;-86
2022/11/01 05:11:30;;;;;;;60.12;27.55;;;;;;;14.90;100.00;99243.19;4158626;85;28500;-83
2022/11/01 05:17:31;;;;;;;55.23;28.60;;;;;;;14.82;100.00;99243.12;4208628;84;28448;-86
2022/11/01 05:23:32;;;;;;;55.28;28.98;;;;;;;14.72;100.00;99253.80;4198561;83;28594;-86
2022/11/01 05:29:34;;;;;;;56.73;28.40;;;;;;;14.73;99.66;99258.97;4207343;83;28424;-87
2022/11/01 05:35:35;;;;;;;46.77;25.27;;;;;;;14.54;100.00;99253.59;4200504;83;28504;-86
2022/11/01 05:41:39;;;;;;;38.75;21.55;;;;;;;14.62;98.02;99257.19;4194843;83;28509;-88
2022/11/01 05:47:40;;;;;;;24.27;14.53;;;;;;;14.55;97.23;99259.29;4191718;83;28470;-75
2022/11/01 05:53:42;;;;;;;23.83;13.85;;;;;;;14.46;96.24;99250.77;4205015;83;28426;-75
2022/11/01 05:59:43;;;;;;;24.25;13.55;;;;;;;14.58;95.26;99251.48;4269707;81;28456;-75
2022/11/01 06:05:45;;;;;;;24.25;13.50;;;;;;;14.52;95.40;99237.61;4196898;83;28481;-74
2022/11/01 06:11:49;;;;;;;19.65;11.05;;;;;;;14.56;96.48;99248.75;4133611;85;28518;-75
2022/11/01 06:17:59;;;;;;;16.77;10.03;;;;;;;14.85;94.36;99258.05;4147824;83;28514;-75
2022/11/01 06:24:01;;;;;;;19.42;9.85;;;;;;;14.89;93.56;99274.05;4202328;83;28485;-75
2022/11/01 06:30:06;;;;;;;18.77;9.80;;;;;;;15.03;94.98;99265.79;4231995;82;28461;-75
2022/11/01 06:36:08;;;;;;;18.98;9.38;;;;;;;14.95;98.27;99256.80;4226210;83;28581;-74
2022/11/01 06:49:33;;;;;;;;;;;;;;;;;;;;;
2022/11/01 06:55:36;;;;;;;19.05;10.25;;;;;;;15.28;98.18;99277.14;3927628;87;28537;-88
2022/11/01 07:02:00;;;;;;;;;;;;;;;;;;;;;
2022/11/01 07:08:04;;;;;;;24.37;11.28;;;;;;;15.38;97.90;99284.00;3904682;86;28556;-84
2022/11/01 07:14:11;;;;;;;21.48;10.38;;;;;;;15.64;97.51;99287.47;3952233;84;28492;-86
2022/11/01 07:20:32;;;;;;;;;;;;;;;;;;;;;
2022/11/01 07:26:46;;;;;;;25.77;12.15;;;;;;;15.88;97.53;99267.08;4112855;83;28503;-87
2022/11/01 07:33:50;;;;;;;;;;;;;;;;;;;;;
2022/11/01 07:39:23;;;;;;;25.23;13.65;;;;;;;16.37;95.83;99257.05;4129979;84;28526;-85
2022/11/01 07:45:47;;;;;;;27.45;13.05;;;;;;;16.48;95.55;99280.17;4118912;84;28503;-85
2022/11/01 07:51:51;;;;;;;30.35;14.98;;;;;;;16.32;96.08;99267.90;4244284;81;28530;-84
2022/11/01 07:58:16;;;;;;;32.05;15.63;;;;;;;16.84;93.60;99254.53;4224051;81;28475;-85
2022/11/01 08:04:23;;;;;;;32.85;14.47;;;;;;;16.78;94.04;99246.08;4263113;81;28500;-77
2022/11/01 08:10:25;;;;;;;34.75;15.90;;;;;;;16.43;94.60;99261.44;4230578;82;28485;-86
2022/11/01 08:16:28;;;;;;;31.77;15.55;;;;;;;16.57;94.46;99260.42;4258908;81;28571;-81
2022/11/01 08:22:29;;;;;;;37.00;16.42;;;;;;;16.56;96.85;99271.00;4254144;81;28473;-79
2022/11/01 08:28:30;;;;;;;41.98;17.73;;;;;;;16.96;94.49;99272.75;4268969;81;28568;-79
2022/11/01 08:34:34;;;;;;;36.30;16.95;;;;;;;16.98;93.82;99270.58;4290211;80;28499;-80
2022/11/01 08:40:35;;;;;;;42.27;19.37;;;;;;;17.14;93.09;99260.59;4267682;82;28503;-78
2022/11/01 08:46:36;;;;;;;39.08;18.70;;;;;;;17.22;93.31;99257.08;4260003;81;28527;-78
2022/11/01 08:52:39;;;;;;;35.35;17.40;;;;;;;17.40;91.47;99251.64;4278298;81;28517;-79
2022/11/01 08:58:41;;;;;;;41.13;19.40;;;;;;;17.64;90.05;99245.13;4262680;82;28517;-79
2022/11/01 09:04:43;;;;;;;40.28;19.55;;;;;;;17.98;89.69;99245.08;4278368;81;28560;-79
2022/11/01 09:10:44;;;;;;;40.00;19.52;;;;;;;17.98;89.07;99257.33;4276322;81;28467;-78
2022/11/01 09:16:46;;;;;;;39.23;21.42;;;;;;;18.22;87.27;99264.38;4279287;82;28499;-79
2022/11/01 09:22:51;;;;;;;34.33;19.12;;;;;;;18.26;87.30;99274.14;4291644;81;28527;-79
2022/11/01 09:28:57;;;;;;;34.80;18.90;;;;;;;18.27;87.60;99271.68;4245427;82;28432;-78
2022/11/01 09:34:59;;;;;;;35.08;19.07;;;;;;;18.33;86.17;99268.42;4250672;82;28511;-80
2022/11/01 09:41:26;;;;;;;35.10;19.32;;;;;;;18.49;86.01;99264.54;4244552;82;28544;-79
2022/11/01 09:47:29;;;;;;;29.12;17.82;;;;;;;18.94;82.48;99273.31;4244934;82;28475;-79
2022/11/01 09:53:31;;;;;;;30.05;17.67;;;;;;;18.92;81.58;99251.81;4256137;81;28463;-79
2022/11/01 09:59:38;;;;;;;29.52;16.70;;;;;;;19.15;78.87;99259.05;4258432;82;28461;-79
2022/11/01 10:06:25;;;;;;;30.88;17.35;;;;;;;19.26;78.91;99252.97;4234790;82;28521;-78
2022/11/01 10:13:08;;;;;;;36.00;16.67;;;;;;;19.98;74.85;99257.57;4213669;82;28465;-78
2022/11/01 10:19:20;;;;;;;26.40;16.67;;;;;;;20.09;73.21;99259.66;4229752;82;28491;-79
2022/11/01 10:25:26;;;;;;;26.68;15.83;;;;;;;20.57;71.70;99269.75;4220072;83;28487;-86
2022/11/01 10:31:28;;;;;;;24.77;15.10;;;;;;;20.58;72.22;99268.11;4224065;83;28512;-85
2022/11/01 10:37:58;;;;;;;23.55;15.85;;;;;;;20.98;68.55;99258.31;4206433;83;28485;-86
2022/11/01 10:44:26;;;;;;;27.73;16.50;;;;;;;21.40;67.54;99261.79;4216386;83;28490;-87
2022/11/01 10:50:29;;;;;;;23.25;13.80;;;;;;;21.12;68.43;99263.02;4171164;83;28473;-89
2022/11/01 10:56:40;;;;;;;25.57;15.43;;;;;;;21.22;67.99;99256.03;4220444;83;28474;-86
2022/11/01 11:02:52;;;;;;;21.85;15.85;;;;;;;21.08;68.57;99251.07;4222847;83;28508;-85
2022/11/01 11:08:55;;;;;;;25.37;16.15;;;;;;;21.03;68.30;99253.32;4236002;83;28588;-87
2022/11/01 11:15:08;;;;;;;25.60;17.07;;;;;;;20.47;70.05;99245.55;4217647;83;28465;-86
2022/11/01 11:21:12;;;;;;;25.02;16.02;;;;;;;20.15;70.10;99237.47;4223274;82;28476;-87
2022/11/01 11:27:21;;;;;;;25.50;16.75;;;;;;;19.99;71.12;99231.91;4240343;82;28477;-86
2022/11/01 11:33:22;;;;;;;26.42;16.60;;;;;;;19.93;71.90;99225.69;4248498;82;28500;-91
2022/11/01 11:39:38;;;;;;;25.65;16.25;;;;;;;19.97;72.05;99227.30;4249336;82;28504;-83
2022/11/01 11:45:38;;;;;;;26.57;15.83;;;;;;;19.92;71.89;99223.50;4247745;82;28453;-89
2022/11/01 11:51:45;;;;;;;27.25;16.10;;;;;;;19.95;71.55;99221.32;4236081;82;28477;-88
2022/11/01 11:57:52;;;;;;;26.05;15.70;;;;;;;19.78;72.60;99217.08;4206003;82;28516;-88
2022/11/01 12:04:05;;;;;;;24.07;15.28;;;;;;;19.96;72.84;99221.04;4240630;82;28503;-88
2022/11/01 12:10:27;;;;;;;26.62;15.90;;;;;;;19.81;73.03;99215.16;4247583;82;28491;-81
2022/11/01 12:16:31;;;;;;;25.77;15.95;;;;;;;20.04;72.42;99214.13;4236327;82;28504;-80
2022/11/01 12:22:37;;;;;;;23.95;14.85;;;;;;;20.17;72.48;99210.69;4180477;82;28492;-82
2022/11/01 12:28:58;;;;;;;23.60;14.60;;;;;;;20.17;72.85;99198.41;4221129;82;28483;-79
2022/11/01 12:35:05;;;;;;;24.05;15.15;;;;;;;20.34;72.87;99199.86;4203016;83;28488;-81
2022/11/01 12:41:30;;;;;;;22.95;13.18;;;;;;;20.47;72.49;99195.03;4216709;83;28503;-81
2022/11/01 12:47:39;;;;;;;22.95;14.28;;;;;;;20.49;72.12;99204.31;4225490;82;28456;-80
2022/11/01 12:53:50;;;;;;;21.40;12.60;;;;;;;20.39;72.17;99205.81;4221317;83;28446;-81
2022/11/01 12:59:52;;;;;;;22.90;14.68;;;;;;;20.57;71.56;99204.20;4199911;84;28498;-81
2022/11/01 13:06:31;;;;;;;21.20;12.90;;;;;;;20.58;71.62;99202.55;4216293;84;28472;-81
2022/11/01 13:12:58;;;;;;;23.18;13.55;;;;;;;20.66;71.26;99202.44;4220833;84;28443;-81
2022/11/01 13:19:03;;;;;;;21.60;12.90;;;;;;;20.77;70.63;99207.19;4217150;83;28496;-82
2022/11/01 13:25:16;;;;;;;21.33;12.47;;;;;;;20.82;70.63;99203.06;4189983;83;28476;-82
2022/11/01 13:31:31;;;;;;;23.42;11.90;;;;;;;20.67;71.09;99207.33;4176216;83;28485;-81
2022/11/01 13:37:44;;;;;;;20.68;11.78;;;;;;;20.75;70.83;99209.41;4198173;83;28531;-81
2022/11/01 13:44:00;;;;;;;13.68;7.00;;;;;;;21.02;70.41;99215.59;4194340;83;28539;-82
2022/11/01 13:50:36;;;;;;;11.55;5.97;;;;;;;21.08;68.70;99222.38;4243581;82;28469;-82
2022/11/01 13:56:51;;;;;;;9.95;5.25;;;;;;;21.27;67.44;99216.33;4297242;81;28547;-83
2022/11/01 14:02:58;;;;;;;12.10;4.97;;;;;;;21.07;66.79;99219.38;4130176;83;28557;-82
2022/11/01 14:09:19;;;;;;;10.53;5.17;;;;;;;21.14;65.87;99224.72;4292997;81;28506;-82
2022/11/01 14:15:27;;;;;;;11.97;5.58;;;;;;;21.01;65.35;99225.48;4279997;81;28499;-82
2022/11/01 14:21:42;;;;;;;10.55;5.80;;;;;;;20.96;66.28;99233.20;4292410;81;28501;-83
2022/11/01 14:27:47;;;;;;;9.18;5.35;;;;;;;20.94;66.14;99241.43;4254525;82;28471;-82
2022/11/01 14:33:50;;;;;;;12.13;7.08;;;;;;;20.55;66.49;99258.31;4285968;82;28513;-83
2022/11/01 14:40:00;;;;;;;12.33;6.35;;;;;;;;;;4152582;84;28505;-83
2022/11/01 14:46:20;;;;;;;11.22;6.30;;;;;;;20.01;67.41;99264.63;4276889;82;28498;-82
2022/11/01 14:52:52;;;;;;;13.75;6.17;;;;;;;19.89;68.22;99272.37;4118169;84;28534;-83
2022/11/01 14:59:14;;;;;;;15.32;6.47;;;;;;;19.71;68.32;99270.61;4224930;82;28511;-83
2022/11/01 15:05:16;;;;;;;9.55;6.20;;;;;;;19.51;69.01;99287.41;4220112;83;28504;-81
2022/11/01 15:11:19;;;;;;;10.80;6.15;;;;;;;19.33;69.69;99288.91;4229587;83;28481;-83
2022/11/01 15:17:28;;;;;;;12.40;6.37;;;;;;;19.02;70.21;99282.85;4229136;83;28516;-83
2022/11/01 15:23:44;;;;;;;12.95;6.12;;;;;;;19.03;70.36;99281.75;4217085;83;28482;-83
2022/11/01 15:29:47;;;;;;;11.40;6.47;;;;;;;18.88;70.64;99290.23;4186095;83;28501;-82
2022/11/01 15:36:21;;;;;;;10.30;6.90;;;;;;;18.63;71.16;99303.41;4184342;83;28564;-81
2022/11/01 15:42:33;;;;;;;13.10;7.20;;;;;;;18.65;71.52;99307.50;4291927;81;28500;-85
2022/11/01 15:48:36;;;;;;;11.55;6.65;;;;;;;18.34;72.33;99310.31;4303492;81;28532;-87
2022/11/01 15:54:53;;;;;;;11.63;7.15;;;;;;;18.42;72.24;99311.65;4319774;81;28477;-82
2022/11/01 16:01:05;;;;;;;16.32;6.90;;;;;;;18.24;73.03;99317.14;4107961;83;28479;-82
2022/11/01 16:07:16;;;;;;;14.28;7.65;;;;;;;18.18;73.33;99310.09;4305878;81;28548;-82
2022/11/01 16:13:19;;;;;;;15.35;7.28;;;;;;;18.11;73.93;99322.60;4275363;81;28482;-82
2022/11/01 16:19:46;;;;;;;11.85;7.08;;;;;;;18.03;74.37;99324.51;4301075;82;28498;-82
2022/11/01 16:26:02;;;;;;;10.08;7.25;;;;;;;17.92;75.04;99331.84;4256633;82;28509;-82
2022/11/01 16:32:06;;;;;;;12.65;7.67;;;;;;;17.80;76.14;99330.22;4221212;82;28559;-82
2022/11/01 16:38:36;;;;;;;12.75;8.10;;;;;;;17.73;77.33;99342.47;4243792;82;28515;-82
2022/11/01 16:44:42;;;;;;;13.93;7.92;;;;;;;17.77;77.39;99342.18;4211769;84;28498;-82
2022/11/01 16:50:44;;;;;;;14.83;8.97;;;;;;;17.69;77.94;99360.66;4165671;83;28480;-81
2022/11/01 16:56:51;;;;;;;16.60;8.83;;;;;;;17.66;78.35;99362.57;4190571;84;28488;-82
2022/11/01 17:02:54;;;;;;;15.08;8.65;;;;;;;17.40;79.61;99369.34;4207660;83;28477;-82
2022/11/01 17:08:56;;;;;;;15.38;8.20;;;;;;;17.30;80.82;99369.84;4180228;85;28474;-82
2022/11/01 17:14:57;;;;;;;12.85;8.33;;;;;;;17.05;82.15;99388.50;4163125;83;28496;-82
2022/11/01 17:21:05;;;;;;;15.72;8.78;;;;;;;16.90;83.41;99391.13;4136815;85;28484;-82
2022/11/01 17:27:07;;;;;;;16.10;8.67;;;;;;;16.82;83.40;99386.47;4230216;83;28529;-80
2022/11/01 17:33:08;;;;;;;16.62;9.25;;;;;;;16.60;85.41;99389.33;4237598;84;28527;-86
2022/11/01 17:39:10;;;;;;;16.97;9.78;;;;;;;16.40;85.92;99388.67;4230153;83;28467;-84
2022/11/01 17:45:12;;;;;;;17.85;10.63;;;;;;;16.64;85.56;99393.17;4226612;83;28522;-84
2022/11/01 17:51:16;;;;;;;15.60;9.70;;;;;;;16.49;86.53;99396.61;4196288;83;28534;-86
2022/11/01 17:57:18;;;;;;;15.95;10.15;;;;;;;16.33;86.92;99404.36;4210098;83;28448;-81
2022/11/01 18:03:19;;;;;;;17.35;10.75;;;;;;;16.12;89.22;99404.20;4233490;83;28461;-81
2022/11/01 18:09:26;;;;;;;20.65;10.60;;;;;;;16.17;88.93;99404.25;4191596;83;28571;-84
2022/11/01 18:15:52;;;;;;;16.65;10.50;;;;;;;16.13;89.47;99417.52;4197779;84;28458;-85
2022/11/01 18:22:14;;;;;;;17.65;10.65;;;;;;;15.87;90.77;99423.22;4219593;84;28461;-77
2022/11/01 18:28:30;;;;;;;19.95;11.40;;;;;;;15.95;91.56;99417.37;4156498;85;28522;-88
2022/11/01 18:34:50;;;;;;;17.95;10.85;;;;;;;15.96;91.03;99420.35;4188397;84;28462;-89
2022/11/01 18:40:59;;;;;;;18.05;10.70;;;;;;;15.85;92.14;99425.38;4134489;85;28500;-88
2022/11/01 18:47:23;;;;;;;23.00;12.10;;;;;;;15.94;91.33;99430.64;4153250;84;28937;-78
2022/11/01 18:53:26;;;;;;;21.07;11.40;;;;;;;15.80;92.34;99436.98;4179374;84;28531;-79
2022/11/01 18:59:32;;;;;;;20.37;11.68;;;;;;;15.87;92.75;99435.42;4183510;83;28514;-80
2022/11/01 19:05:35;;;;;;;21.65;12.55;;;;;;;15.98;91.89;99441.77;4167171;85;28492;-76
2022/11/01 19:11:36;;;;;;;20.88;12.43;;;;;;;15.94;92.61;99451.50;4182869;83;28519;-86
2022/11/01 19:17:43;;;;;;;23.65;13.10;;;;;;;16.05;93.55;99450.52;4161394;83;28492;-90
2022/11/01 19:23:56;;;;;;;22.77;13.30;;;;;;;16.17;92.64;99448.45;4185630;83;28635;-90
2022/11/01 19:30:01;;;;;;;21.37;12.85;;;;;;;16.19;93.32;99448.73;4156327;84;28480;-91
2022/11/01 19:36:23;;;;;;;23.02;13.18;;;;;;;16.25;93.81;99449.91;4163285;85;28436;-91
2022/11/01 19:42:31;;;;;;;24.52;12.18;;;;;;;16.20;93.68;99451.75;4071389;85;28600;-91
2022/11/01 19:48:34;;;;;;;22.40;12.60;;;;;;;16.30;93.33;99458.63;4099951;85;28484;-90
2022/11/01 19:54:39;;;;;;;23.85;13.58;;;;;;;16.22;93.35;99462.61;4166886;84;28550;-88
2022/11/01 20:00:45;;;;;;;23.15;13.48;;;;;;;16.24;94.18;99463.16;4168952;85;28451;-90
2022/11/01 20:07:00;;;;;;;24.57;13.60;;;;;;;16.27;93.28;99474.87;4172560;84;28572;-92
2022/11/01 20:13:07;;;;;;;25.20;14.18;;;;;;;16.45;92.21;99476.37;4126436;84;28454;-89
2022/11/01 20:19:08;;;;;;;27.55;14.38;;;;;;;16.41;92.31;99471.19;4159185;85;28521;-90
2022/11/01 20:25:15;;;;;;;;;;;;;;;16.45;91.31;99485.03;4123144;84;28458;-86
2022/11/01 20:31:23;;;;;;;22.40;12.15;;;;;;;16.45;90.80;99487.75;4180775;83;20199;-87
2022/11/01 20:37:26;;;;;;;24.55;12.63;;;;;;;16.32;90.72;99486.30;4226934;83;28447;-86
2022/11/01 20:43:31;;;;;;;25.95;13.78;;;;;;;16.33;91.00;99485.23;4229464;82;28534;-88
2022/11/01 20:49:32;;;;;;;25.32;13.53;;;;;;;16.43;90.04;99504.30;4170585;84;28476;-84
2022/11/01 20:55:34;;;;;;;22.73;13.25;;;;;;;16.29;90.44;99503.91;4225659;84;28460;-84
2022/11/01 21:01:40;;;;;;;25.35;13.72;;;;;;;16.26;90.30;99503.08;4231763;82;28491;-85
2022/11/01 21:07:42;;;;;;;25.72;13.40;;;;;;;16.14;90.91;99495.09;4231898;84;28562;-85
2022/11/01 21:13:44;;;;;;;25.27;13.50;;;;;;;15.91;92.32;99500.28;4181123;83;28513;-85
2022/11/01 21:19:56;;;;;;;26.73;14.35;;;;;;;15.98;92.39;99498.20;4162639;84;28467;-84
2022/11/01 21:25:56;;;;;;;26.85;13.95;;;;;;;16.05;91.78;99503.41;4214502;84;28464;-85
2022/11/01 21:32:01;;;;;;;26.70;14.65;;;;;;;15.99;92.38;99510.67;4182932;84;28488;-87
2022/11/01 21:38:26;;;;;;;26.95;13.55;;;;;;;15.96;91.98;99513.91;4204842;84;28464;-82
2022/11/01 21:44:41;;;;;;;27.77;13.53;;;;;;;16.00;92.26;99514.22;4151380;84;28477;-81
2022/11/01 21:50:43;;;;;;;24.45;12.68;;;;;;;15.97;92.61;99522.84;4200843;83;28438;-83
2022/11/01 21:56:46;;;;;;;22.90;13.13;;;;;;;15.95;92.93;99531.25;4174884;83;28465;-83
2022/11/01 22:02:47;;;;;;;23.85;13.72;;;;;;;15.94;92.52;99528.27;4144330;83;28460;-81
2022/11/01 22:08:50;;;;;;;25.72;14.60;;;;;;;15.99;92.08;99536.44;4257888;81;28573;-81
2022/11/01 22:14:52;;;;;;;23.25;14.03;;;;;;;16.06;91.81;99525.38;4292204;81;28554;-81
2022/11/01 22:20:53;;;;;;;25.02;13.90;;;;;;;16.32;90.55;99532.43;4244543;81;28471;-81
2022/11/01 22:26:54;;;;;;;24.55;13.78;;;;;;;16.36;90.52;99531.38;4266288;81;28505;-80
2022/11/01 22:32:58;;;;;;;25.48;13.78;;;;;;;16.41;90.22;99532.25;4243398;82;28489;-80
2022/11/01 22:39:03;;;;;;;24.95;14.05;;;;;;;16.45;90.08;99528.45;4311315;82;28510;-80
2022/11/01 22:45:13;;;;;;;21.07;12.90;;;;;;;16.57;89.70;99522.34;4311611;81;28508;-81
2022/11/01 22:51:48;;;;;;;24.77;13.43;;;;;;;16.65;88.96;99526.47;4293468;82;28562;-79
2022/11/01 22:57:55;;;;;;;25.85;14.25;;;;;;;16.85;87.91;99530.41;4297698;83;28431;-80
2022/11/01 23:03:57;;;;;;;25.08;13.32;;;;;;;16.86;87.40;99531.48;4305920;83;28623;-80
2022/11/01 23:10:04;;;;;;;29.32;15.03;;;;;;;16.94;86.81;99523.95;4289190;82;28451;-80
2022/11/01 23:16:22;;;;;;;23.45;13.10;;;;;;;17.00;85.66;99526.45;4308687;82;28481;-81
2022/11/01 23:22:32;;;;;;;29.37;15.72;;;;;;;16.92;86.28;99525.58;4286429;83;28477;-81
2022/11/01 23:28:36;;;;;;;25.68;14.80;;;;;;;16.99;85.65;99527.51;4294296;82;28577;-84
2022/11/01 23:34:37;;;;;;;25.02;14.65;;;;;;;17.06;84.63;99527.31;4271825;81;28511;-82
2022/11/01 23:40:38;;;;;;;26.35;14.47;;;;;;;16.96;84.70;99525.85;4276516;81;28467;-84
2022/11/01 23:46:40;;;;;;;27.22;14.23;;;;;;;16.88;85.25;99526.36;4315273;81;28552;-83
2022/11/01 23:52:45;;;;;;;23.67;13.78;;;;;;;17.02;84.86;99524.84;4275610;81;28486;-82
2022/11/01 23:59:02;;;;;;;21.65;13.05;;;;;;;17.03;84.62;99518.89;4303552;81;28655;-83
